Terminal Aerodrome Forecast
Issued by NWS Albany, NY

Home | Current Version | Previous Version | Text Only | Print | Product List | Glossary On
Versions: 1 2 3 4 5 6 7 8 9 10 11 12 13 14 15 16 17 18 19 20 21 22 23
000
FTUS41 KALY 260500
TAFALB
TAF
KALB 260539Z 2606/2706 32005KT P6SM SCT040 BKN130 OVC200
     FM261100 33004KT P6SM VCSH SCT040 OVC080
     FM261300 35004KT 2SM -SN BR OVC020
     FM261500 36005KT 3/4SM -SN BR VV008
     FM261900 35008KT 1/2SM SN FG VV004
     FM270200 33010KT 2SM -SN BR OVC008=

USA.gov is the U.S. government's official web portal to all federal, state and local government web resources and services.